createdAt,value
2022-10-10T00:00:12.530Z,7.87
2022-10-10T00:02:38.982Z,7.85
2022-10-10T00:05:05.915Z,7.81
2022-10-10T00:07:32.343Z,7.87
2022-10-10T00:09:58.803Z,7.90
2022-10-10T00:12:25.479Z,7.94
2022-10-10T00:14:52.136Z,7.98
2022-10-10T00:17:18.625Z,7.96
2022-10-10T00:19:45.079Z,7.91
2022-10-10T00:22:11.562Z,7.93
2022-10-10T00:24:38.208Z,7.91
2022-10-10T00:27:04.693Z,7.92
2022-10-10T00:29:31.209Z,7.96
2022-10-10T00:31:57.590Z,7.98
2022-10-10T00:34:24.240Z,8.04
2022-10-10T00:36:50.836Z,8.09
2022-10-10T00:39:17.354Z,8.03
2022-10-10T00:41:43.756Z,7.99
2022-10-10T00:44:12.822Z,7.97
2022-10-10T00:46:39.992Z,8.05
2022-10-10T00:49:14.430Z,7.92
2022-10-10T00:51:42.286Z,7.87
2022-10-10T00:54:11.210Z,7.82
2022-10-10T00:56:46.481Z,7.81
2022-10-10T00:59:14.690Z,7.82
2022-10-10T01:01:41.621Z,7.74
2022-10-10T01:04:45.461Z,7.69
2022-10-10T01:07:21.944Z,7.76
2022-10-10T01:09:52.358Z,7.65
2022-10-10T01:12:25.885Z,7.61
2022-10-10T01:14:52.595Z,7.59
2022-10-10T01:17:28.840Z,7.51
2022-10-10T01:20:13.555Z,7.41
2022-10-10T01:23:17.667Z,7.29
2022-10-10T01:26:12.412Z,7.20
2022-10-10T01:28:48.032Z,7.13
2022-10-10T01:31:17.322Z,7.07
2022-10-10T01:33:49.764Z,6.99
2022-10-10T01:36:43.088Z,6.94
2022-10-10T01:39:21.161Z,6.83
2022-10-10T01:41:56.516Z,6.78
2022-10-10T01:44:22.989Z,6.76
2022-10-10T01:46:49.445Z,6.75
2022-10-10T01:49:16.472Z,6.71
2022-10-10T01:52:02.293Z,6.71
2022-10-10T01:54:40.938Z,6.63
2022-10-10T01:57:39.763Z,6.57
2022-10-10T02:00:15.406Z,6.51
2022-10-10T02:02:52.343Z,6.42
2022-10-10T02:05:43.954Z,6.38
2022-10-10T02:08:16.019Z,6.35
2022-10-10T02:10:47.288Z,6.34
2022-10-10T02:13:16.574Z,6.29
2022-10-10T02:15:47.788Z,6.40
2022-10-10T02:18:18.422Z,6.33
2022-10-10T02:20:45.815Z,6.29
2022-10-10T02:23:16.544Z,6.26
2022-10-10T02:25:47.533Z,6.26
2022-10-10T02:28:25.946Z,6.18
2022-10-10T02:30:57.655Z,6.11
2022-10-10T02:33:31.900Z,6.10
2022-10-10T02:36:00.237Z,6.10
2022-10-10T02:38:30.528Z,6.05
2022-10-10T02:40:58.864Z,6.02
2022-10-10T02:43:25.846Z,6.01
2022-10-10T02:45:52.293Z,5.97
2022-10-10T02:48:18.863Z,5.98
2022-10-10T02:50:45.480Z,5.94
2022-10-10T02:53:11.951Z,5.92
2022-10-10T02:55:38.642Z,5.95
2022-10-10T02:58:05.553Z,5.89
2022-10-10T03:00:32.027Z,5.88
2022-10-10T03:02:58.493Z,5.84
2022-10-10T03:05:24.926Z,5.94
2022-10-10T03:07:51.349Z,5.89
2022-10-10T03:10:17.907Z,5.84
2022-10-10T03:12:44.416Z,5.86
2022-10-10T03:15:12.118Z,5.85
2022-10-10T03:17:39.574Z,5.81
2022-10-10T03:20:07.128Z,5.80
2022-10-10T03:22:33.673Z,5.79
2022-10-10T03:25:00.126Z,5.80
2022-10-10T03:27:27.046Z,5.70
2022-10-10T03:29:53.834Z,5.76
2022-10-10T03:32:20.312Z,5.81
2022-10-10T03:34:46.781Z,5.69
2022-10-10T03:37:13.248Z,5.69
2022-10-10T03:39:39.892Z,5.66
2022-10-10T03:42:06.699Z,5.64
2022-10-10T03:44:33.337Z,5.67
2022-10-10T03:46:59.802Z,5.75
2022-10-10T03:49:26.606Z,5.82
2022-10-10T03:51:53.696Z,5.82
2022-10-10T03:54:20.554Z,6.02
2022-10-10T03:56:47.594Z,6.08
2022-10-10T03:59:14.120Z,6.02
2022-10-10T04:01:40.986Z,5.89
2022-10-10T04:04:07.545Z,5.82
2022-10-10T04:06:34.252Z,5.87
2022-10-10T04:09:00.972Z,5.87
2022-10-10T04:11:27.495Z,5.89
2022-10-10T04:13:53.969Z,5.90
2022-10-10T04:16:20.661Z,5.85
2022-10-10T04:18:47.139Z,5.81
2022-10-10T04:21:13.883Z,5.79
2022-10-10T04:23:41.268Z,5.71
2022-10-10T04:26:08.361Z,5.75
2022-10-10T04:28:36.545Z,5.78
2022-10-10T04:31:05.611Z,6.07
2022-10-10T04:33:32.073Z,5.90
2022-10-10T04:35:58.506Z,5.96
2022-10-10T04:38:25.036Z,6.02
2022-10-10T04:40:51.817Z,5.97
2022-10-10T04:43:18.592Z,5.96
2022-10-10T04:45:45.632Z,5.92
2022-10-10T04:48:12.283Z,5.91
2022-10-10T04:50:38.859Z,5.91
2022-10-10T04:53:05.661Z,5.89
2022-10-10T04:55:32.087Z,5.89
2022-10-10T04:57:58.643Z,5.91
2022-10-10T05:00:25.153Z,5.90
2022-10-10T05:02:51.761Z,5.91
2022-10-10T05:05:18.865Z,5.97
2022-10-10T05:07:45.356Z,6.02
2022-10-10T05:10:11.790Z,6.09
2022-10-10T05:12:38.500Z,6.07
2022-10-10T05:15:05.610Z,6.17
2022-10-10T05:17:32.116Z,6.15
2022-10-10T05:19:58.777Z,6.10
2022-10-10T05:22:25.726Z,6.12
2022-10-10T05:24:52.289Z,6.10
2022-10-10T05:27:18.753Z,6.03
2022-10-10T05:29:45.219Z,6.00
2022-10-10T05:32:11.641Z,5.94
2022-10-10T05:34:38.433Z,5.88
2022-10-10T05:37:05.105Z,5.81
2022-10-10T05:39:31.881Z,5.79
2022-10-10T05:41:58.465Z,5.73
2022-10-10T05:44:25.207Z,5.70
2022-10-10T05:46:51.748Z,5.67
2022-10-10T05:49:18.338Z,5.61
2022-10-10T05:51:44.743Z,5.60
2022-10-10T05:54:11.461Z,5.57
2022-10-10T05:56:38.173Z,5.59
2022-10-10T05:59:04.859Z,5.60
2022-10-10T06:01:31.689Z,5.60
2022-10-10T06:03:58.180Z,5.62
2022-10-10T06:06:26.134Z,5.61
2022-10-10T06:08:53.450Z,5.64
2022-10-10T06:11:20.635Z,5.61
2022-10-10T06:13:49.663Z,5.56
2022-10-10T06:16:16.564Z,5.60
2022-10-10T06:18:43.147Z,5.61
2022-10-10T06:21:11.101Z,5.59
2022-10-10T06:23:37.901Z,5.61
2022-10-10T06:26:04.587Z,5.63
2022-10-10T06:28:31.455Z,5.68
2022-10-10T06:31:03.259Z,5.74
2022-10-10T06:33:29.871Z,5.77
2022-10-10T06:35:56.625Z,5.87
2022-10-10T06:38:23.805Z,6.01
2022-10-10T06:40:50.612Z,6.15
2022-10-10T06:43:17.574Z,6.24
2022-10-10T06:45:47.126Z,6.31
2022-10-10T06:48:14.762Z,6.38
2022-10-10T06:50:41.510Z,6.40
2022-10-10T06:53:08.305Z,6.44
2022-10-10T06:55:34.812Z,6.48
2022-10-10T06:58:01.290Z,6.53
2022-10-10T07:00:27.791Z,6.57
2022-10-10T07:02:54.409Z,6.60
2022-10-10T07:05:21.006Z,6.64
2022-10-10T07:07:47.471Z,6.70
2022-10-10T07:10:15.582Z,6.78
2022-10-10T07:12:44.687Z,6.88
2022-10-10T07:15:12.055Z,6.96
2022-10-10T07:17:39.131Z,7.02
2022-10-10T07:20:07.009Z,7.10
2022-10-10T07:22:33.789Z,7.21
2022-10-10T07:25:00.367Z,7.34
2022-10-10T07:27:28.295Z,7.46
2022-10-10T07:29:54.863Z,7.61
2022-10-10T07:32:21.444Z,7.78
2022-10-10T07:34:47.897Z,7.90
2022-10-10T07:37:14.461Z,8.02
2022-10-10T07:39:41.041Z,8.12
2022-10-10T07:42:07.491Z,8.20
2022-10-10T07:44:34.926Z,8.32
2022-10-10T07:47:04.605Z,8.43
2022-10-10T07:49:31.039Z,8.62
2022-10-10T07:51:59.039Z,8.73
2022-10-10T07:54:28.689Z,9.04
2022-10-10T07:56:55.563Z,9.20
2022-10-10T07:59:22.746Z,9.31
2022-10-10T08:01:49.979Z,9.48
2022-10-10T08:04:17.166Z,9.61
2022-10-10T08:06:43.756Z,9.75
2022-10-10T08:09:10.878Z,9.90
2022-10-10T08:11:37.453Z,9.98
2022-10-10T08:14:04.269Z,10.13
2022-10-10T08:16:31.010Z,10.23
2022-10-10T08:18:57.793Z,10.23
2022-10-10T08:21:24.653Z,10.34
2022-10-10T08:23:51.114Z,10.48
2022-10-10T08:26:19.754Z,10.45
2022-10-10T08:28:48.432Z,10.65
2022-10-10T08:31:18.390Z,10.70
2022-10-10T08:33:46.398Z,10.68
2022-10-10T08:36:23.542Z,10.82
2022-10-10T08:38:52.577Z,10.89
2022-10-10T08:41:51.822Z,10.89
2022-10-10T08:44:46.387Z,10.99
2022-10-10T08:47:18.295Z,11.08
2022-10-10T08:49:55.761Z,11.16
2022-10-10T08:52:32.226Z,11.18
2022-10-10T08:55:02.706Z,11.26
2022-10-10T08:57:34.561Z,11.41
2022-10-10T09:00:05.868Z,11.52
2022-10-10T09:02:53.275Z,11.63
2022-10-10T09:05:47.638Z,11.79
2022-10-10T09:08:34.739Z,11.78
2022-10-10T09:11:04.324Z,12.01
2022-10-10T09:13:37.208Z,12.04
2022-10-10T09:16:36.825Z,12.06
2022-10-10T09:19:24.759Z,12.11
2022-10-10T09:22:02.811Z,12.18
2022-10-10T09:24:48.513Z,12.33
2022-10-10T09:27:24.791Z,12.41
2022-10-10T09:29:58.019Z,12.50
2022-10-10T09:32:30.868Z,12.62
2022-10-10T09:35:05.806Z,12.71
2022-10-10T09:37:47.391Z,12.82
2022-10-10T09:40:25.912Z,12.92
2022-10-10T09:42:52.538Z,13.04
2022-10-10T09:45:23.588Z,13.20
2022-10-10T09:47:54.011Z,13.29
2022-10-10T09:50:21.465Z,13.34
2022-10-10T09:52:48.775Z,13.29
2022-10-10T09:55:37.177Z,13.33
2022-10-10T09:58:41.282Z,13.42
2022-10-10T10:01:17.573Z,13.54
2022-10-10T10:03:44.802Z,13.58
2022-10-10T10:06:14.819Z,13.71
2022-10-10T10:08:42.857Z,13.84
2022-10-10T10:11:32.728Z,13.99
2022-10-10T10:14:02.478Z,14.14
2022-10-10T10:16:39.758Z,14.26
2022-10-10T10:19:33.656Z,14.30
2022-10-10T10:22:00.329Z,14.35
2022-10-10T10:24:36.265Z,14.52
2022-10-10T10:27:14.835Z,14.61
2022-10-10T10:29:46.843Z,14.65
2022-10-10T10:32:22.468Z,14.72
2022-10-10T10:35:09.571Z,14.78
2022-10-10T10:37:57.984Z,14.94
2022-10-10T10:40:44.450Z,14.99
2022-10-10T10:43:41.679Z,15.00
2022-10-10T10:46:24.397Z,15.10
2022-10-10T10:49:29.626Z,15.23
2022-10-10T10:52:10.057Z,15.32
2022-10-10T10:54:52.989Z,15.52
2022-10-10T10:58:28.338Z,15.59
2022-10-10T11:01:24.005Z,15.67
2022-10-10T11:05:16.183Z,15.67
2022-10-10T11:07:18.912Z,15.72
2022-10-10T11:09:50.867Z,15.82
2022-10-10T11:12:29.416Z,15.84
2022-10-10T11:15:10.658Z,15.94
2022-10-10T11:17:41.205Z,15.98
2022-10-10T11:20:16.747Z,15.99
2022-10-10T11:23:22.461Z,16.17
2022-10-10T11:26:00.344Z,16.26
2022-10-10T11:28:52.556Z,16.38
2022-10-10T11:31:31.796Z,16.41
2022-10-10T11:34:06.921Z,16.33
2022-10-10T11:36:38.834Z,16.46
2022-10-10T11:39:15.789Z,16.45
2022-10-10T11:42:02.779Z,16.44
2022-10-10T11:44:38.995Z,16.37
2022-10-10T11:47:15.451Z,16.60
2022-10-10T11:50:13.335Z,16.62
2022-10-10T11:52:54.533Z,16.48
2022-10-10T11:55:36.800Z,16.63
2022-10-10T11:58:06.572Z,16.68
2022-10-10T12:00:43.107Z,16.74
2022-10-10T12:03:10.494Z,16.77
2022-10-10T12:05:41.172Z,16.68
2022-10-10T12:08:18.003Z,16.60
2022-10-10T12:10:53.589Z,16.67
2022-10-10T12:13:35.111Z,16.74
2022-10-10T12:16:10.319Z,16.80
2022-10-10T12:19:13.405Z,16.96
2022-10-10T12:21:56.501Z,16.95
2022-10-10T12:24:25.784Z,17.00
2022-10-10T12:26:54.981Z,17.10
2022-10-10T12:30:09.253Z,17.12
2022-10-10T12:32:46.628Z,17.16
2022-10-10T12:35:33.376Z,17.01
2022-10-10T12:38:10.037Z,17.06
2022-10-10T12:41:02.441Z,17.18
2022-10-10T12:43:45.715Z,17.20
2022-10-10T12:46:23.567Z,17.20
2022-10-10T12:49:21.045Z,17.23
2022-10-10T12:52:11.993Z,17.19
2022-10-10T12:54:42.693Z,17.09
2022-10-10T12:57:28.869Z,17.12
2022-10-10T12:59:59.851Z,17.28
2022-10-10T13:02:28.489Z,17.34
2022-10-10T13:04:58.914Z,17.47
2022-10-10T13:07:26.358Z,17.44
2022-10-10T13:09:55.041Z,17.35
2022-10-10T13:12:30.159Z,17.46
2022-10-10T13:14:57.385Z,17.48
2022-10-10T13:17:29.638Z,17.42
2022-10-10T13:19:57.766Z,17.38
2022-10-10T13:22:25.686Z,17.33
2022-10-10T13:24:53.053Z,17.29
2022-10-10T13:27:25.724Z,17.19
2022-10-10T13:29:54.387Z,17.14
2022-10-10T13:32:35.921Z,17.21
2022-10-10T13:35:08.010Z,17.37
2022-10-10T13:37:35.413Z,17.34
2022-10-10T13:40:03.177Z,17.38
2022-10-10T13:42:38.247Z,17.43
2022-10-10T13:45:30.339Z,17.39
2022-10-10T13:48:00.175Z,17.29
2022-10-10T13:50:34.819Z,17.27
2022-10-10T13:53:29.179Z,17.22
2022-10-10T13:56:15.974Z,17.15
2022-10-10T13:58:50.453Z,17.17
2022-10-10T14:01:32.258Z,17.09
2022-10-10T14:04:05.766Z,17.01
2022-10-10T14:06:33.004Z,16.96
2022-10-10T14:09:17.044Z,16.96
2022-10-10T14:11:43.750Z,16.95
2022-10-10T14:14:20.873Z,17.02
2022-10-10T14:16:58.029Z,16.96
2022-10-10T14:19:24.646Z,17.06
2022-10-10T14:21:51.249Z,16.94
2022-10-10T14:24:17.747Z,16.94
2022-10-10T14:26:44.162Z,16.90
2022-10-10T14:29:14.284Z,16.92
2022-10-10T14:31:41.537Z,16.94
2022-10-10T14:34:11.635Z,16.88
2022-10-10T14:36:41.986Z,16.84
2022-10-10T14:39:13.009Z,16.77
2022-10-10T14:41:39.473Z,16.79
2022-10-10T14:44:06.040Z,16.78
2022-10-10T14:46:32.515Z,16.72
2022-10-10T14:48:58.958Z,16.72
2022-10-10T14:51:33.525Z,16.67
2022-10-10T14:54:10.994Z,16.75
2022-10-10T14:57:06.529Z,16.71
2022-10-10T14:59:47.685Z,16.68
2022-10-10T15:02:15.029Z,16.68
2022-10-10T15:04:41.494Z,16.77
2022-10-10T15:07:14.782Z,16.77
2022-10-10T15:12:37.343Z,16.61
2022-10-10T15:15:04.873Z,16.52
2022-10-10T15:17:34.474Z,16.48
2022-10-10T15:20:02.306Z,16.39
2022-10-10T15:22:30.232Z,16.44
2022-10-10T15:24:56.736Z,16.38
2022-10-10T15:27:23.505Z,16.39
2022-10-10T15:29:50.043Z,16.28
2022-10-10T15:32:16.547Z,16.18
2022-10-10T15:34:42.989Z,16.17
2022-10-10T15:37:10.441Z,16.15
2022-10-10T15:39:37.497Z,16.08
2022-10-10T15:42:13.269Z,16.19
2022-10-10T15:44:46.237Z,16.06
2022-10-10T15:47:14.770Z,16.08
2022-10-10T15:49:41.886Z,16.08
2022-10-10T15:52:09.817Z,16.00
2022-10-10T15:54:36.432Z,15.98
2022-10-10T15:57:03.340Z,15.93
2022-10-10T15:59:30.279Z,15.87
2022-10-10T16:01:56.816Z,15.94
2022-10-10T16:04:23.646Z,15.85
2022-10-10T16:06:54.561Z,15.84
2022-10-10T16:09:33.421Z,15.82
2022-10-10T16:12:00.420Z,15.70
2022-10-10T16:14:28.339Z,15.66
2022-10-10T16:16:54.893Z,15.67
2022-10-10T16:19:21.413Z,15.67
2022-10-10T16:21:47.943Z,15.77
2022-10-10T16:24:14.695Z,15.67
2022-10-10T16:26:41.557Z,15.79
2022-10-10T16:29:10.239Z,15.81
2022-10-10T16:31:39.091Z,15.54
2022-10-10T16:34:07.552Z,15.52
2022-10-10T16:36:36.585Z,15.34
2022-10-10T16:39:04.305Z,15.31
2022-10-10T16:41:47.683Z,15.22
2022-10-10T16:44:15.809Z,15.13
2022-10-10T16:46:42.295Z,14.94
2022-10-10T16:49:11.669Z,14.82
2022-10-10T16:51:38.192Z,14.61
2022-10-10T16:54:05.983Z,14.52
2022-10-10T16:56:32.889Z,14.43
2022-10-10T16:59:00.092Z,14.24
2022-10-10T17:01:28.740Z,14.05
2022-10-10T17:03:57.387Z,13.85
2022-10-10T17:06:24.013Z,13.75
2022-10-10T17:08:52.867Z,13.55
2022-10-10T17:11:21.718Z,13.46
2022-10-10T17:13:50.020Z,13.38
2022-10-10T17:16:59.694Z,13.32
2022-10-10T17:19:08.862Z,13.27
2022-10-10T17:21:35.999Z,13.28
2022-10-10T17:24:02.520Z,13.20
2022-10-10T17:26:29.012Z,13.21
2022-10-10T17:28:57.447Z,13.15
2022-10-10T17:31:25.523Z,13.11
2022-10-10T17:33:54.408Z,13.02
2022-10-10T17:36:25.157Z,12.97
2022-10-10T17:38:52.625Z,12.93
2022-10-10T17:41:20.610Z,13.02
2022-10-10T17:43:47.724Z,12.94
2022-10-10T17:49:06.714Z,12.80
2022-10-10T17:51:34.950Z,12.86
2022-10-10T17:54:03.143Z,12.73
2022-10-10T17:56:29.892Z,12.72
2022-10-10T17:58:56.441Z,12.68
2022-10-10T18:01:23.343Z,12.56
2022-10-10T18:03:50.200Z,12.53
2022-10-10T18:06:20.428Z,12.68
2022-10-10T18:08:48.473Z,12.66
2022-10-10T18:11:17.263Z,12.73
2022-10-10T18:13:44.434Z,12.64
2022-10-10T18:16:13.588Z,12.68
2022-10-10T18:18:43.079Z,12.63
2022-10-10T18:21:13.316Z,12.78
2022-10-10T18:23:42.238Z,12.67
2022-10-10T18:26:15.092Z,12.64
2022-10-10T18:28:42.583Z,12.59
2022-10-10T18:31:14.105Z,12.64
2022-10-10T18:33:41.597Z,12.68
2022-10-10T18:36:09.138Z,12.59
2022-10-10T18:38:35.980Z,12.69
2022-10-10T18:41:07.667Z,12.57
2022-10-10T18:43:34.922Z,12.45
2022-10-10T18:46:05.246Z,12.45
2022-10-10T18:48:32.381Z,12.40
2022-10-10T18:51:21.601Z,12.36
2022-10-10T18:53:48.541Z,12.30
2022-10-10T18:56:21.064Z,12.28
2022-10-10T18:58:47.655Z,12.31
2022-10-10T19:01:15.444Z,12.27
2022-10-10T19:03:42.804Z,12.19
2022-10-10T19:06:12.485Z,12.21
2022-10-10T19:08:40.121Z,12.14
2022-10-10T19:11:08.495Z,12.10
2022-10-10T19:13:35.244Z,12.15
2022-10-10T19:16:06.317Z,12.12
2022-10-10T19:18:33.952Z,12.03
2022-10-10T19:21:02.838Z,12.02
2022-10-10T19:23:30.887Z,12.06
2022-10-10T19:26:02.290Z,11.98
2022-10-10T19:28:28.885Z,11.91
2022-10-10T19:30:55.706Z,11.83
2022-10-10T19:33:22.310Z,11.85
2022-10-10T19:35:52.068Z,11.70
2022-10-10T19:38:19.247Z,11.63
2022-10-10T19:40:47.483Z,11.60
2022-10-10T19:43:15.410Z,11.57
2022-10-10T19:45:51.270Z,11.44
2022-10-10T19:48:22.196Z,11.42
2022-10-10T19:50:49.011Z,11.40
2022-10-10T19:53:17.754Z,11.35
2022-10-10T19:55:55.905Z,11.23
2022-10-10T19:58:22.435Z,11.30
2022-10-10T20:00:48.917Z,11.06
2022-10-10T20:03:15.507Z,11.06
2022-10-10T20:05:41.976Z,10.94
2022-10-10T20:08:08.672Z,10.86
2022-10-10T20:10:36.012Z,10.80
2022-10-10T20:13:02.461Z,10.74
2022-10-10T20:15:28.985Z,10.76
2022-10-10T20:17:55.399Z,10.60
2022-10-10T20:20:21.981Z,10.54
2022-10-10T20:22:48.558Z,10.55
2022-10-10T20:25:15.066Z,10.53
2022-10-10T20:27:41.496Z,10.42
2022-10-10T20:30:08.662Z,10.27
2022-10-10T20:32:35.196Z,10.26
2022-10-10T20:35:02.430Z,10.31
2022-10-10T20:37:28.961Z,10.22
2022-10-10T20:39:55.450Z,10.16
2022-10-10T20:42:22.006Z,10.18
2022-10-10T20:44:49.493Z,10.17
2022-10-10T20:47:15.974Z,10.10
2022-10-10T20:49:42.429Z,10.14
2022-10-10T20:52:08.980Z,10.06
2022-10-10T20:54:36.457Z,10.08
2022-10-10T20:57:02.999Z,10.04
2022-10-10T20:59:29.762Z,10.01
2022-10-10T21:01:56.394Z,9.93
2022-10-10T21:04:24.384Z,9.84
2022-10-10T21:06:50.827Z,9.87
2022-10-10T21:09:17.333Z,9.89
2022-10-10T21:11:46.508Z,9.82
2022-10-10T21:14:15.370Z,9.89
2022-10-10T21:16:41.846Z,9.80
2022-10-10T21:19:10.260Z,9.73
2022-10-10T21:21:37.518Z,9.72
2022-10-10T21:24:07.161Z,9.69
2022-10-10T21:26:33.751Z,9.59
2022-10-10T21:29:03.266Z,9.54
2022-10-10T21:31:36.917Z,9.51
2022-10-10T21:34:05.950Z,9.54
2022-10-10T21:36:33.686Z,9.34
2022-10-10T21:39:02.649Z,9.27
2022-10-10T21:41:29.233Z,9.30
2022-10-10T21:43:58.168Z,9.25
2022-10-10T21:46:33.578Z,9.18
2022-10-10T21:49:07.586Z,9.20
2022-10-10T21:51:39.189Z,9.12
2022-10-10T21:54:07.003Z,9.04
2022-10-10T21:56:34.118Z,9.05
2022-10-10T21:59:01.617Z,9.04
2022-10-10T22:01:28.726Z,8.97
2022-10-10T22:03:56.343Z,8.90
2022-10-10T22:06:24.854Z,8.93
2022-10-10T22:08:54.284Z,8.91
2022-10-10T22:11:23.791Z,8.84
2022-10-10T22:13:50.905Z,8.88
2022-10-10T22:16:18.909Z,8.85
2022-10-10T22:18:45.356Z,8.87
2022-10-10T22:21:15.108Z,8.82
2022-10-10T22:23:42.338Z,8.72
2022-10-10T22:26:11.435Z,8.62
2022-10-10T22:28:38.500Z,8.62
2022-10-10T22:31:07.062Z,8.62
2022-10-10T22:33:34.899Z,8.61
2022-10-10T22:36:03.040Z,8.52
2022-10-10T22:38:30.049Z,8.62
2022-10-10T22:40:56.607Z,8.51
2022-10-10T22:43:26.793Z,8.52
2022-10-10T22:45:53.968Z,8.40
2022-10-10T22:48:20.585Z,8.39
2022-10-10T22:50:47.119Z,8.35
2022-10-10T22:53:13.632Z,8.35
2022-10-10T22:55:40.151Z,8.33
2022-10-10T22:58:06.999Z,8.23
2022-10-10T23:00:33.654Z,8.26
2022-10-10T23:03:00.192Z,8.32
2022-10-10T23:05:26.912Z,8.24
2022-10-10T23:07:53.447Z,8.21
2022-10-10T23:10:19.900Z,8.16
2022-10-10T23:12:46.420Z,8.12
2022-10-10T23:15:13.595Z,8.16
2022-10-10T23:17:40.087Z,8.10
2022-10-10T23:20:07.548Z,8.14
2022-10-10T23:22:34.112Z,8.15
2022-10-10T23:25:00.733Z,8.12
2022-10-10T23:27:27.221Z,8.08
2022-10-10T23:29:53.614Z,8.00
2022-10-10T23:32:20.110Z,8.15
2022-10-10T23:34:46.486Z,8.10
2022-10-10T23:37:13.071Z,8.06
2022-10-10T23:39:42.627Z,7.97
2022-10-10T23:42:09.099Z,7.92
2022-10-10T23:44:35.860Z,7.87
2022-10-10T23:47:04.923Z,7.88
2022-10-10T23:49:31.393Z,7.84
2022-10-10T23:51:57.801Z,7.79
2022-10-10T23:54:24.603Z,7.77
2022-10-10T23:56:51.054Z,7.86
2022-10-10T23:59:17.754Z,7.79
